sensor_id;sensor_type;location;lat;lon;timestamp;P1;durP1;ratioP1;P2;durP2;ratioP2
69310;SDS011;56430;48.154;16.458;2023-05-07T00:02:16;2.30;;;0.80;;
69310;SDS011;56430;48.154;16.458;2023-05-07T00:04:43;3.20;;;1.03;;
69310;SDS011;56430;48.154;16.458;2023-05-07T00:07:10;2.97;;;0.90;;
69310;SDS011;56430;48.154;16.458;2023-05-07T00:09:37;3.05;;;0.90;;
69310;SDS011;56430;48.154;16.458;2023-05-07T00:12:04;3.95;;;1.33;;
69310;SDS011;56430;48.154;16.458;2023-05-07T00:14:31;4.35;;;1.20;;
69310;SDS011;56430;48.154;16.458;2023-05-07T00:16:59;3.20;;;1.30;;
69310;SDS011;56430;48.154;16.458;2023-05-07T00:19:26;4.10;;;1.80;;
69310;SDS011;56430;48.154;16.458;2023-05-07T00:21:53;4.85;;;1.40;;
69310;SDS011;56430;48.154;16.458;2023-05-07T00:24:21;4.40;;;1.48;;
69310;SDS011;56430;48.154;16.458;2023-05-07T00:26:48;4.53;;;1.30;;
69310;SDS011;56430;48.154;16.458;2023-05-07T00:29:15;3.83;;;1.47;;
69310;SDS011;56430;48.154;16.458;2023-05-07T00:31:42;3.40;;;1.35;;
69310;SDS011;56430;48.154;16.458;2023-05-07T00:34:10;4.40;;;1.35;;
69310;SDS011;56430;48.154;16.458;2023-05-07T00:36:37;3.70;;;1.40;;
69310;SDS011;56430;48.154;16.458;2023-05-07T00:39:04;2.83;;;1.20;;
69310;SDS011;56430;48.154;16.458;2023-05-07T00:41:31;4.37;;;1.40;;
69310;SDS011;56430;48.154;16.458;2023-05-07T00:43:58;3.13;;;1.30;;
69310;SDS011;56430;48.154;16.458;2023-05-07T00:46:26;3.13;;;1.10;;
69310;SDS011;56430;48.154;16.458;2023-05-07T00:48:53;3.22;;;1.27;;
69310;SDS011;56430;48.154;16.458;2023-05-07T00:51:23;3.38;;;0.90;;
69310;SDS011;56430;48.154;16.458;2023-05-07T00:53:50;3.20;;;1.10;;
69310;SDS011;56430;48.154;16.458;2023-05-07T00:56:17;2.88;;;0.90;;
69310;SDS011;56430;48.154;16.458;2023-05-07T00:58:45;3.15;;;0.95;;
69310;SDS011;56430;48.154;16.458;2023-05-07T01:01:12;3.22;;;1.10;;
69310;SDS011;56430;48.154;16.458;2023-05-07T01:03:41;4.28;;;1.15;;
69310;SDS011;56430;48.154;16.458;2023-05-07T01:06:08;3.27;;;1.17;;
69310;SDS011;56430;48.154;16.458;2023-05-07T01:08:39;3.08;;;1.30;;
69310;SDS011;56430;48.154;16.458;2023-05-07T01:11:07;2.78;;;1.13;;
69310;SDS011;56430;48.154;16.458;2023-05-07T01:13:34;3.20;;;1.40;;
69310;SDS011;56430;48.154;16.458;2023-05-07T01:16:02;2.55;;;1.15;;
69310;SDS011;56430;48.154;16.458;2023-05-07T01:18:29;3.10;;;0.93;;
69310;SDS011;56430;48.154;16.458;2023-05-07T01:20:56;2.70;;;1.15;;
69310;SDS011;56430;48.154;16.458;2023-05-07T01:23:26;2.67;;;0.90;;
69310;SDS011;56430;48.154;16.458;2023-05-07T01:25:54;2.75;;;0.93;;
69310;SDS011;56430;48.154;16.458;2023-05-07T01:28:36;2.65;;;1.13;;
69310;SDS011;56430;48.154;16.458;2023-05-07T01:31:04;3.20;;;1.17;;
69310;SDS011;56430;48.154;16.458;2023-05-07T01:33:33;3.30;;;0.90;;
69310;SDS011;56430;48.154;16.458;2023-05-07T01:36:01;2.53;;;1.17;;
69310;SDS011;56430;48.154;16.458;2023-05-07T01:38:30;3.25;;;1.17;;
69310;SDS011;56430;48.154;16.458;2023-05-07T01:40:57;3.47;;;1.30;;
69310;SDS011;56430;48.154;16.458;2023-05-07T01:43:24;4.90;;;1.03;;
69310;SDS011;56430;48.154;16.458;2023-05-07T01:45:51;3.00;;;1.20;;
69310;SDS011;56430;48.154;16.458;2023-05-07T01:48:19;2.03;;;0.82;;
69310;SDS011;56430;48.154;16.458;2023-05-07T01:50:47;4.88;;;1.15;;
69310;SDS011;56430;48.154;16.458;2023-05-07T01:53:14;2.03;;;0.70;;
69310;SDS011;56430;48.154;16.458;2023-05-07T01:55:42;3.20;;;1.00;;
69310;SDS011;56430;48.154;16.458;2023-05-07T01:58:09;2.40;;;1.20;;
69310;SDS011;56430;48.154;16.458;2023-05-07T02:00:36;3.08;;;1.10;;
69310;SDS011;56430;48.154;16.458;2023-05-07T02:03:03;5.43;;;1.27;;
69310;SDS011;56430;48.154;16.458;2023-05-07T02:05:29;2.88;;;0.93;;
69310;SDS011;56430;48.154;16.458;2023-05-07T02:07:56;2.63;;;1.00;;
69310;SDS011;56430;48.154;16.458;2023-05-07T02:10:23;3.58;;;0.77;;
69310;SDS011;56430;48.154;16.458;2023-05-07T02:12:52;3.15;;;1.02;;
69310;SDS011;56430;48.154;16.458;2023-05-07T02:15:19;3.20;;;0.95;;
69310;SDS011;56430;48.154;16.458;2023-05-07T02:17:59;2.80;;;1.05;;
69310;SDS011;56430;48.154;16.458;2023-05-07T02:20:26;4.63;;;0.97;;
69310;SDS011;56430;48.154;16.458;2023-05-07T02:22:53;2.25;;;0.90;;
69310;SDS011;56430;48.154;16.458;2023-05-07T02:25:20;3.40;;;1.15;;
69310;SDS011;56430;48.154;16.458;2023-05-07T02:27:47;3.85;;;1.20;;
69310;SDS011;56430;48.154;16.458;2023-05-07T02:30:16;3.03;;;1.08;;
69310;SDS011;56430;48.154;16.458;2023-05-07T02:32:43;2.67;;;0.97;;
69310;SDS011;56430;48.154;16.458;2023-05-07T02:35:10;2.80;;;0.80;;
69310;SDS011;56430;48.154;16.458;2023-05-07T02:37:37;3.05;;;1.10;;
69310;SDS011;56430;48.154;16.458;2023-05-07T02:40:05;2.88;;;1.17;;
69310;SDS011;56430;48.154;16.458;2023-05-07T02:42:32;2.63;;;0.88;;
69310;SDS011;56430;48.154;16.458;2023-05-07T02:44:58;2.00;;;0.80;;
69310;SDS011;56430;48.154;16.458;2023-05-07T02:47:29;4.93;;;1.42;;
69310;SDS011;56430;48.154;16.458;2023-05-07T02:49:56;2.65;;;1.15;;
69310;SDS011;56430;48.154;16.458;2023-05-07T02:52:23;3.25;;;1.08;;
69310;SDS011;56430;48.154;16.458;2023-05-07T02:54:50;3.55;;;1.00;;
69310;SDS011;56430;48.154;16.458;2023-05-07T02:57:17;2.47;;;1.03;;
69310;SDS011;56430;48.154;16.458;2023-05-07T02:59:44;3.72;;;1.73;;
69310;SDS011;56430;48.154;16.458;2023-05-07T03:02:11;3.95;;;1.17;;
69310;SDS011;56430;48.154;16.458;2023-05-07T03:04:39;2.70;;;1.02;;
69310;SDS011;56430;48.154;16.458;2023-05-07T03:07:07;2.88;;;1.30;;
69310;SDS011;56430;48.154;16.458;2023-05-07T03:09:34;2.83;;;1.60;;
69310;SDS011;56430;48.154;16.458;2023-05-07T03:12:01;3.22;;;1.73;;
69310;SDS011;56430;48.154;16.458;2023-05-07T03:14:28;4.60;;;1.95;;
69310;SDS011;56430;48.154;16.458;2023-05-07T03:16:55;3.05;;;1.33;;
69310;SDS011;56430;48.154;16.458;2023-05-07T03:19:21;3.33;;;1.50;;
69310;SDS011;56430;48.154;16.458;2023-05-07T03:21:50;3.40;;;1.77;;
69310;SDS011;56430;48.154;16.458;2023-05-07T03:24:17;2.42;;;1.30;;
69310;SDS011;56430;48.154;16.458;2023-05-07T03:26:44;4.65;;;1.60;;
69310;SDS011;56430;48.154;16.458;2023-05-07T03:29:11;3.55;;;1.42;;
69310;SDS011;56430;48.154;16.458;2023-05-07T03:31:38;3.60;;;1.55;;
69310;SDS011;56430;48.154;16.458;2023-05-07T03:34:05;6.80;;;1.70;;
69310;SDS011;56430;48.154;16.458;2023-05-07T03:36:31;4.60;;;2.17;;
69310;SDS011;56430;48.154;16.458;2023-05-07T03:39:00;4.00;;;1.60;;
69310;SDS011;56430;48.154;16.458;2023-05-07T03:41:27;3.17;;;1.40;;
69310;SDS011;56430;48.154;16.458;2023-05-07T03:43:55;4.57;;;1.80;;
69310;SDS011;56430;48.154;16.458;2023-05-07T03:46:21;5.57;;;1.80;;
69310;SDS011;56430;48.154;16.458;2023-05-07T03:48:51;3.85;;;1.75;;
69310;SDS011;56430;48.154;16.458;2023-05-07T03:51:18;3.70;;;1.50;;
69310;SDS011;56430;48.154;16.458;2023-05-07T03:53:45;5.45;;;1.83;;
69310;SDS011;56430;48.154;16.458;2023-05-07T03:56:13;3.55;;;1.58;;
69310;SDS011;56430;48.154;16.458;2023-05-07T03:58:40;4.60;;;1.90;;
69310;SDS011;56430;48.154;16.458;2023-05-07T04:01:07;4.53;;;1.88;;
69310;SDS011;56430;48.154;16.458;2023-05-07T04:03:43;3.58;;;1.52;;
69310;SDS011;56430;48.154;16.458;2023-05-07T04:06:10;4.75;;;1.83;;
69310;SDS011;56430;48.154;16.458;2023-05-07T04:08:37;3.47;;;1.63;;
69310;SDS011;56430;48.154;16.458;2023-05-07T04:11:04;5.37;;;2.17;;
69310;SDS011;56430;48.154;16.458;2023-05-07T04:13:33;4.85;;;1.83;;
69310;SDS011;56430;48.154;16.458;2023-05-07T04:16:00;3.95;;;2.05;;
69310;SDS011;56430;48.154;16.458;2023-05-07T04:18:27;6.15;;;2.97;;
69310;SDS011;56430;48.154;16.458;2023-05-07T04:20:54;7.25;;;2.90;;
69310;SDS011;56430;48.154;16.458;2023-05-07T04:23:21;5.27;;;2.47;;
69310;SDS011;56430;48.154;16.458;2023-05-07T04:25:48;6.50;;;2.58;;
69310;SDS011;56430;48.154;16.458;2023-05-07T04:28:15;6.60;;;2.97;;
69310;SDS011;56430;48.154;16.458;2023-05-07T04:30:44;5.07;;;2.22;;
69310;SDS011;56430;48.154;16.458;2023-05-07T04:33:12;5.90;;;2.35;;
69310;SDS011;56430;48.154;16.458;2023-05-07T04:35:40;5.30;;;2.73;;
69310;SDS011;56430;48.154;16.458;2023-05-07T04:38:07;5.28;;;2.45;;
69310;SDS011;56430;48.154;16.458;2023-05-07T04:40:35;5.65;;;2.35;;
69310;SDS011;56430;48.154;16.458;2023-05-07T04:43:02;6.75;;;2.80;;
69310;SDS011;56430;48.154;16.458;2023-05-07T04:45:30;5.80;;;2.58;;
69310;SDS011;56430;48.154;16.458;2023-05-07T04:47:58;6.43;;;2.93;;
69310;SDS011;56430;48.154;16.458;2023-05-07T04:50:25;5.22;;;2.40;;
69310;SDS011;56430;48.154;16.458;2023-05-07T04:52:52;7.38;;;3.10;;
69310;SDS011;56430;48.154;16.458;2023-05-07T04:55:19;6.70;;;3.30;;
69310;SDS011;56430;48.154;16.458;2023-05-07T04:57:46;8.45;;;3.58;;
69310;SDS011;56430;48.154;16.458;2023-05-07T05:00:16;10.13;;;4.50;;
69310;SDS011;56430;48.154;16.458;2023-05-07T05:02:45;8.45;;;3.83;;
69310;SDS011;56430;48.154;16.458;2023-05-07T05:05:13;9.27;;;3.83;;
69310;SDS011;56430;48.154;16.458;2023-05-07T05:07:40;11.77;;;5.15;;
69310;SDS011;56430;48.154;16.458;2023-05-07T05:10:07;10.43;;;4.55;;
69310;SDS011;56430;48.154;16.458;2023-05-07T05:12:34;11.03;;;4.97;;
69310;SDS011;56430;48.154;16.458;2023-05-07T05:15:01;9.02;;;4.38;;
69310;SDS011;56430;48.154;16.458;2023-05-07T05:17:28;11.13;;;4.95;;
69310;SDS011;56430;48.154;16.458;2023-05-07T05:19:55;10.45;;;4.95;;
69310;SDS011;56430;48.154;16.458;2023-05-07T05:22:23;10.95;;;5.13;;
69310;SDS011;56430;48.154;16.458;2023-05-07T05:24:51;12.53;;;5.37;;
69310;SDS011;56430;48.154;16.458;2023-05-07T05:27:20;11.25;;;5.80;;
69310;SDS011;56430;48.154;16.458;2023-05-07T05:29:47;13.00;;;6.05;;
69310;SDS011;56430;48.154;16.458;2023-05-07T05:32:14;16.23;;;7.18;;
69310;SDS011;56430;48.154;16.458;2023-05-07T05:34:41;11.52;;;5.68;;
69310;SDS011;56430;48.154;16.458;2023-05-07T05:37:07;13.67;;;6.00;;
69310;SDS011;56430;48.154;16.458;2023-05-07T05:39:36;12.65;;;5.70;;
69310;SDS011;56430;48.154;16.458;2023-05-07T05:42:03;13.70;;;6.88;;
69310;SDS011;56430;48.154;16.458;2023-05-07T05:44:30;14.63;;;6.53;;
69310;SDS011;56430;48.154;16.458;2023-05-07T05:46:57;12.10;;;5.88;;
69310;SDS011;56430;48.154;16.458;2023-05-07T05:49:24;13.77;;;6.07;;
69310;SDS011;56430;48.154;16.458;2023-05-07T05:51:51;12.05;;;5.85;;
69310;SDS011;56430;48.154;16.458;2023-05-07T05:54:18;14.38;;;7.15;;
69310;SDS011;56430;48.154;16.458;2023-05-07T05:56:47;12.60;;;6.35;;
69310;SDS011;56430;48.154;16.458;2023-05-07T05:59:14;15.35;;;6.30;;
69310;SDS011;56430;48.154;16.458;2023-05-07T06:01:41;13.53;;;6.80;;
69310;SDS011;56430;48.154;16.458;2023-05-07T06:04:08;14.35;;;7.40;;
69310;SDS011;56430;48.154;16.458;2023-05-07T06:06:35;13.63;;;6.93;;
69310;SDS011;56430;48.154;16.458;2023-05-07T06:09:02;15.52;;;6.72;;
69310;SDS011;56430;48.154;16.458;2023-05-07T06:11:29;10.52;;;5.72;;
69310;SDS011;56430;48.154;16.458;2023-05-07T06:13:57;11.53;;;6.23;;
69310;SDS011;56430;48.154;16.458;2023-05-07T06:16:24;14.45;;;7.18;;
69310;SDS011;56430;48.154;16.458;2023-05-07T06:18:51;13.73;;;6.75;;
69310;SDS011;56430;48.154;16.458;2023-05-07T06:21:18;13.52;;;6.78;;
69310;SDS011;56430;48.154;16.458;2023-05-07T06:23:45;14.88;;;6.65;;
69310;SDS011;56430;48.154;16.458;2023-05-07T06:26:12;12.10;;;6.57;;
69310;SDS011;56430;48.154;16.458;2023-05-07T06:28:39;13.23;;;6.30;;
69310;SDS011;56430;48.154;16.458;2023-05-07T06:31:14;16.45;;;6.85;;
69310;SDS011;56430;48.154;16.458;2023-05-07T06:33:41;12.07;;;6.78;;
69310;SDS011;56430;48.154;16.458;2023-05-07T06:36:09;14.98;;;7.18;;
69310;SDS011;56430;48.154;16.458;2023-05-07T06:38:36;13.33;;;7.37;;
69310;SDS011;56430;48.154;16.458;2023-05-07T06:41:03;15.10;;;7.05;;
69310;SDS011;56430;48.154;16.458;2023-05-07T06:43:30;14.82;;;6.53;;
69310;SDS011;56430;48.154;16.458;2023-05-07T06:45:57;10.90;;;6.20;;
69310;SDS011;56430;48.154;16.458;2023-05-07T06:48:26;13.77;;;6.20;;
69310;SDS011;56430;48.154;16.458;2023-05-07T06:50:53;12.60;;;6.30;;
69310;SDS011;56430;48.154;16.458;2023-05-07T06:53:22;10.80;;;5.80;;
69310;SDS011;56430;48.154;16.458;2023-05-07T06:55:49;13.68;;;6.20;;
69310;SDS011;56430;48.154;16.458;2023-05-07T06:58:17;11.52;;;5.90;;
69310;SDS011;56430;48.154;16.458;2023-05-07T07:00:44;12.02;;;5.95;;
69310;SDS011;56430;48.154;16.458;2023-05-07T07:03:11;11.63;;;6.23;;
69310;SDS011;56430;48.154;16.458;2023-05-07T07:05:41;14.73;;;6.18;;
69310;SDS011;56430;48.154;16.458;2023-05-07T07:08:08;11.68;;;5.93;;
69310;SDS011;56430;48.154;16.458;2023-05-07T07:10:38;10.70;;;6.00;;
69310;SDS011;56430;48.154;16.458;2023-05-07T07:13:07;15.95;;;6.80;;
69310;SDS011;56430;48.154;16.458;2023-05-07T07:15:34;9.87;;;6.00;;
69310;SDS011;56430;48.154;16.458;2023-05-07T07:18:01;13.57;;;6.20;;
69310;SDS011;56430;48.154;16.458;2023-05-07T07:20:28;12.10;;;5.60;;
69310;SDS011;56430;48.154;16.458;2023-05-07T07:22:56;13.25;;;5.75;;
69310;SDS011;56430;48.154;16.458;2023-05-07T07:25:23;11.40;;;5.90;;
69310;SDS011;56430;48.154;16.458;2023-05-07T07:27:50;11.77;;;6.13;;
69310;SDS011;56430;48.154;16.458;2023-05-07T07:30:18;10.43;;;5.53;;
69310;SDS011;56430;48.154;16.458;2023-05-07T07:32:45;12.13;;;6.15;;
69310;SDS011;56430;48.154;16.458;2023-05-07T07:35:11;13.25;;;6.70;;
69310;SDS011;56430;48.154;16.458;2023-05-07T07:37:41;11.35;;;6.43;;
69310;SDS011;56430;48.154;16.458;2023-05-07T07:40:10;12.47;;;6.53;;
69310;SDS011;56430;48.154;16.458;2023-05-07T07:42:38;11.25;;;6.07;;
69310;SDS011;56430;48.154;16.458;2023-05-07T07:45:05;11.50;;;6.00;;
69310;SDS011;56430;48.154;16.458;2023-05-07T07:47:32;10.15;;;5.88;;
69310;SDS011;56430;48.154;16.458;2023-05-07T07:49:59;10.40;;;6.43;;
69310;SDS011;56430;48.154;16.458;2023-05-07T07:52:26;11.67;;;6.73;;
69310;SDS011;56430;48.154;16.458;2023-05-07T07:54:53;10.83;;;6.20;;
69310;SDS011;56430;48.154;16.458;2023-05-07T07:57:21;8.45;;;5.13;;
69310;SDS011;56430;48.154;16.458;2023-05-07T07:59:48;9.73;;;5.53;;
69310;SDS011;56430;48.154;16.458;2023-05-07T08:02:15;9.15;;;5.78;;
69310;SDS011;56430;48.154;16.458;2023-05-07T08:04:42;9.50;;;5.95;;
69310;SDS011;56430;48.154;16.458;2023-05-07T08:07:10;8.43;;;5.65;;
69310;SDS011;56430;48.154;16.458;2023-05-07T08:09:37;8.23;;;5.22;;
69310;SDS011;56430;48.154;16.458;2023-05-07T08:12:04;8.38;;;5.07;;
69310;SDS011;56430;48.154;16.458;2023-05-07T08:14:33;8.10;;;5.30;;
69310;SDS011;56430;48.154;16.458;2023-05-07T08:17:00;7.40;;;4.70;;
69310;SDS011;56430;48.154;16.458;2023-05-07T08:19:27;10.90;;;5.70;;
69310;SDS011;56430;48.154;16.458;2023-05-07T08:21:54;9.73;;;5.32;;
69310;SDS011;56430;48.154;16.458;2023-05-07T08:24:23;9.05;;;5.30;;
69310;SDS011;56430;48.154;16.458;2023-05-07T08:26:50;8.20;;;5.32;;
69310;SDS011;56430;48.154;16.458;2023-05-07T08:29:17;10.10;;;5.03;;
69310;SDS011;56430;48.154;16.458;2023-05-07T08:31:46;8.18;;;5.18;;
69310;SDS011;56430;48.154;16.458;2023-05-07T08:34:13;8.00;;;5.38;;
69310;SDS011;56430;48.154;16.458;2023-05-07T08:36:40;10.63;;;5.03;;
69310;SDS011;56430;48.154;16.458;2023-05-07T08:39:07;9.55;;;5.43;;
69310;SDS011;56430;48.154;16.458;2023-05-07T08:41:34;7.87;;;4.57;;
69310;SDS011;56430;48.154;16.458;2023-05-07T08:44:01;8.10;;;4.30;;
69310;SDS011;56430;48.154;16.458;2023-05-07T08:46:30;7.28;;;4.60;;
69310;SDS011;56430;48.154;16.458;2023-05-07T08:48:59;8.73;;;5.10;;
69310;SDS011;56430;48.154;16.458;2023-05-07T08:51:26;7.03;;;4.53;;
69310;SDS011;56430;48.154;16.458;2023-05-07T08:53:53;7.40;;;4.45;;
69310;SDS011;56430;48.154;16.458;2023-05-07T08:56:20;8.27;;;5.13;;
69310;SDS011;56430;48.154;16.458;2023-05-07T08:58:47;9.07;;;5.15;;
69310;SDS011;56430;48.154;16.458;2023-05-07T09:01:14;7.97;;;4.45;;
69310;SDS011;56430;48.154;16.458;2023-05-07T09:03:42;6.55;;;4.03;;
69310;SDS011;56430;48.154;16.458;2023-05-07T09:06:12;7.03;;;4.50;;
69310;SDS011;56430;48.154;16.458;2023-05-07T09:08:39;6.87;;;4.40;;
69310;SDS011;56430;48.154;16.458;2023-05-07T09:11:06;7.47;;;4.30;;
69310;SDS011;56430;48.154;16.458;2023-05-07T09:13:33;7.25;;;4.22;;
69310;SDS011;56430;48.154;16.458;2023-05-07T09:16:09;9.63;;;5.20;;
69310;SDS011;56430;48.154;16.458;2023-05-07T09:18:40;6.45;;;4.40;;
69310;SDS011;56430;48.154;16.458;2023-05-07T09:21:09;7.32;;;4.68;;
69310;SDS011;56430;48.154;16.458;2023-05-07T09:23:37;5.70;;;4.70;;
69310;SDS011;56430;48.154;16.458;2023-05-07T09:26:04;6.47;;;4.88;;
69310;SDS011;56430;48.154;16.458;2023-05-07T09:28:38;7.60;;;5.03;;
69310;SDS011;56430;48.154;16.458;2023-05-07T09:31:05;8.00;;;5.00;;
69310;SDS011;56430;48.154;16.458;2023-05-07T09:33:34;7.60;;;5.07;;
69310;SDS011;56430;48.154;16.458;2023-05-07T09:36:02;7.18;;;4.80;;
69310;SDS011;56430;48.154;16.458;2023-05-07T09:38:29;8.05;;;5.00;;
69310;SDS011;56430;48.154;16.458;2023-05-07T09:41:04;6.57;;;4.47;;
69310;SDS011;56430;48.154;16.458;2023-05-07T09:43:31;6.50;;;5.30;;
69310;SDS011;56430;48.154;16.458;2023-05-07T09:45:58;6.30;;;4.78;;
69310;SDS011;56430;48.154;16.458;2023-05-07T09:48:29;7.47;;;5.10;;
69310;SDS011;56430;48.154;16.458;2023-05-07T09:50:56;5.97;;;4.53;;
69310;SDS011;56430;48.154;16.458;2023-05-07T09:53:24;7.03;;;5.00;;
69310;SDS011;56430;48.154;16.458;2023-05-07T09:55:51;6.33;;;4.60;;
69310;SDS011;56430;48.154;16.458;2023-05-07T09:58:20;6.97;;;5.70;;
69310;SDS011;56430;48.154;16.458;2023-05-07T10:00:48;9.10;;;6.20;;
69310;SDS011;56430;48.154;16.458;2023-05-07T10:03:16;7.15;;;5.75;;
69310;SDS011;56430;48.154;16.458;2023-05-07T10:05:43;7.75;;;4.95;;
69310;SDS011;56430;48.154;16.458;2023-05-07T10:08:12;6.78;;;4.70;;
69310;SDS011;56430;48.154;16.458;2023-05-07T10:10:42;5.97;;;4.45;;
69310;SDS011;56430;48.154;16.458;2023-05-07T10:13:09;7.05;;;4.13;;
69310;SDS011;56430;48.154;16.458;2023-05-07T10:15:38;7.07;;;4.70;;
69310;SDS011;56430;48.154;16.458;2023-05-07T10:18:06;6.70;;;5.05;;
69310;SDS011;56430;48.154;16.458;2023-05-07T10:20:33;7.60;;;5.23;;
69310;SDS011;56430;48.154;16.458;2023-05-07T10:23:00;6.93;;;5.13;;
69310;SDS011;56430;48.154;16.458;2023-05-07T10:25:30;6.35;;;4.47;;
69310;SDS011;56430;48.154;16.458;2023-05-07T10:27:59;7.03;;;4.38;;
69310;SDS011;56430;48.154;16.458;2023-05-07T10:30:26;6.82;;;4.78;;
69310;SDS011;56430;48.154;16.458;2023-05-07T10:32:58;7.53;;;4.68;;
69310;SDS011;56430;48.154;16.458;2023-05-07T10:35:32;6.13;;;4.07;;
69310;SDS011;56430;48.154;16.458;2023-05-07T10:38:02;6.43;;;4.35;;
69310;SDS011;56430;48.154;16.458;2023-05-07T10:40:30;6.35;;;4.22;;
69310;SDS011;56430;48.154;16.458;2023-05-07T10:42:57;6.53;;;4.65;;
69310;SDS011;56430;48.154;16.458;2023-05-07T10:45:25;7.87;;;5.00;;
69310;SDS011;56430;48.154;16.458;2023-05-07T10:48:09;8.27;;;4.90;;
69310;SDS011;56430;48.154;16.458;2023-05-07T10:50:37;7.35;;;4.70;;
69310;SDS011;56430;48.154;16.458;2023-05-07T10:53:22;6.25;;;4.18;;
69310;SDS011;56430;48.154;16.458;2023-05-07T10:58:39;5.93;;;4.10;;
69310;SDS011;56430;48.154;16.458;2023-05-07T11:01:06;6.55;;;4.40;;
69310;SDS011;56430;48.154;16.458;2023-05-07T11:03:36;5.85;;;4.32;;
69310;SDS011;56430;48.154;16.458;2023-05-07T11:06:23;5.65;;;4.00;;
69310;SDS011;56430;48.154;16.458;2023-05-07T11:08:54;7.47;;;4.63;;
69310;SDS011;56430;48.154;16.458;2023-05-07T11:14:03;7.00;;;4.40;;
69310;SDS011;56430;48.154;16.458;2023-05-07T11:16:30;5.90;;;4.10;;
69310;SDS011;56430;48.154;16.458;2023-05-07T11:19:00;5.28;;;3.90;;
69310;SDS011;56430;48.154;16.458;2023-05-07T11:21:37;5.88;;;4.43;;
69310;SDS011;56430;48.154;16.458;2023-05-07T11:24:04;6.82;;;4.30;;
69310;SDS011;56430;48.154;16.458;2023-05-07T11:26:41;5.72;;;4.00;;
69310;SDS011;56430;48.154;16.458;2023-05-07T11:29:10;8.35;;;4.80;;
69310;SDS011;56430;48.154;16.458;2023-05-07T11:31:37;7.75;;;5.15;;
69310;SDS011;56430;48.154;16.458;2023-05-07T11:34:05;6.43;;;4.90;;
69310;SDS011;56430;48.154;16.458;2023-05-07T11:36:33;8.60;;;4.33;;
69310;SDS011;56430;48.154;16.458;2023-05-07T11:39:00;5.40;;;3.50;;
69310;SDS011;56430;48.154;16.458;2023-05-07T11:41:33;14.65;;;10.65;;
69310;SDS011;56430;48.154;16.458;2023-05-07T11:44:00;6.80;;;4.63;;
69310;SDS011;56430;48.154;16.458;2023-05-07T11:46:27;6.25;;;4.03;;
69310;SDS011;56430;48.154;16.458;2023-05-07T11:48:55;6.25;;;3.88;;
69310;SDS011;56430;48.154;16.458;2023-05-07T11:51:26;6.38;;;3.45;;
69310;SDS011;56430;48.154;16.458;2023-05-07T11:53:53;6.00;;;3.47;;
69310;SDS011;56430;48.154;16.458;2023-05-07T11:56:20;6.13;;;3.50;;
69310;SDS011;56430;48.154;16.458;2023-05-07T11:58:47;5.78;;;4.03;;
69310;SDS011;56430;48.154;16.458;2023-05-07T12:01:15;8.87;;;5.30;;
69310;SDS011;56430;48.154;16.458;2023-05-07T12:03:44;12.33;;;8.47;;
69310;SDS011;56430;48.154;16.458;2023-05-07T12:06:12;7.35;;;4.32;;
69310;SDS011;56430;48.154;16.458;2023-05-07T12:08:41;10.43;;;7.38;;
69310;SDS011;56430;48.154;16.458;2023-05-07T12:11:09;7.80;;;5.50;;
69310;SDS011;56430;48.154;16.458;2023-05-07T12:13:36;6.50;;;4.00;;
69310;SDS011;56430;48.154;16.458;2023-05-07T12:16:04;8.02;;;5.68;;
69310;SDS011;56430;48.154;16.458;2023-05-07T12:18:32;5.43;;;3.53;;
69310;SDS011;56430;48.154;16.458;2023-05-07T12:21:00;4.68;;;3.03;;
69310;SDS011;56430;48.154;16.458;2023-05-07T12:23:27;5.75;;;3.10;;
69310;SDS011;56430;48.154;16.458;2023-05-07T12:25:56;7.77;;;3.20;;
69310;SDS011;56430;48.154;16.458;2023-05-07T12:28:23;5.83;;;3.40;;
69310;SDS011;56430;48.154;16.458;2023-05-07T12:30:50;5.57;;;2.78;;
69310;SDS011;56430;48.154;16.458;2023-05-07T12:33:17;5.30;;;2.92;;
69310;SDS011;56430;48.154;16.458;2023-05-07T12:35:46;5.25;;;3.30;;
69310;SDS011;56430;48.154;16.458;2023-05-07T12:38:14;4.95;;;2.92;;
69310;SDS011;56430;48.154;16.458;2023-05-07T12:40:43;6.05;;;3.15;;
69310;SDS011;56430;48.154;16.458;2023-05-07T12:43:16;6.18;;;3.15;;
69310;SDS011;56430;48.154;16.458;2023-05-07T12:45:44;5.20;;;3.00;;
69310;SDS011;56430;48.154;16.458;2023-05-07T12:48:11;5.33;;;2.87;;
69310;SDS011;56430;48.154;16.458;2023-05-07T12:50:38;6.27;;;3.10;;
69310;SDS011;56430;48.154;16.458;2023-05-07T12:53:05;6.50;;;3.05;;
69310;SDS011;56430;48.154;16.458;2023-05-07T12:55:40;5.43;;;2.97;;
69310;SDS011;56430;48.154;16.458;2023-05-07T12:58:07;6.55;;;2.97;;
69310;SDS011;56430;48.154;16.458;2023-05-07T13:00:37;5.80;;;3.38;;
69310;SDS011;56430;48.154;16.458;2023-05-07T13:03:04;4.88;;;2.63;;
69310;SDS011;56430;48.154;16.458;2023-05-07T13:05:31;4.93;;;3.08;;
69310;SDS011;56430;48.154;16.458;2023-05-07T13:07:58;6.55;;;2.67;;
69310;SDS011;56430;48.154;16.458;2023-05-07T13:10:26;5.78;;;3.45;;
69310;SDS011;56430;48.154;16.458;2023-05-07T13:12:53;5.17;;;2.50;;
69310;SDS011;56430;48.154;16.458;2023-05-07T13:15:20;4.87;;;2.43;;
69310;SDS011;56430;48.154;16.458;2023-05-07T13:17:50;4.18;;;2.35;;
69310;SDS011;56430;48.154;16.458;2023-05-07T13:20:16;5.57;;;2.72;;
69310;SDS011;56430;48.154;16.458;2023-05-07T13:22:43;4.05;;;2.67;;
69310;SDS011;56430;48.154;16.458;2023-05-07T13:25:10;4.32;;;2.53;;
69310;SDS011;56430;48.154;16.458;2023-05-07T13:27:37;4.00;;;2.40;;
69310;SDS011;56430;48.154;16.458;2023-05-07T13:30:05;3.65;;;2.08;;
69310;SDS011;56430;48.154;16.458;2023-05-07T13:32:32;4.72;;;2.63;;
69310;SDS011;56430;48.154;16.458;2023-05-07T13:35:01;4.35;;;2.60;;
69310;SDS011;56430;48.154;16.458;2023-05-07T13:37:28;5.13;;;2.40;;
69310;SDS011;56430;48.154;16.458;2023-05-07T13:39:55;3.67;;;2.17;;
69310;SDS011;56430;48.154;16.458;2023-05-07T13:42:22;3.65;;;2.13;;
69310;SDS011;56430;48.154;16.458;2023-05-07T13:44:49;5.32;;;2.25;;
69310;SDS011;56430;48.154;16.458;2023-05-07T13:47:16;4.65;;;2.47;;
69310;SDS011;56430;48.154;16.458;2023-05-07T13:49:43;4.97;;;2.20;;
69310;SDS011;56430;48.154;16.458;2023-05-07T13:52:12;4.40;;;2.22;;
69310;SDS011;56430;48.154;16.458;2023-05-07T13:54:39;4.05;;;2.50;;
69310;SDS011;56430;48.154;16.458;2023-05-07T13:57:06;5.55;;;2.60;;
69310;SDS011;56430;48.154;16.458;2023-05-07T13:59:33;4.05;;;2.10;;
69310;SDS011;56430;48.154;16.458;2023-05-07T14:02:00;3.90;;;2.30;;
69310;SDS011;56430;48.154;16.458;2023-05-07T14:04:27;4.53;;;2.53;;
69310;SDS011;56430;48.154;16.458;2023-05-07T14:06:54;4.30;;;2.30;;
69310;SDS011;56430;48.154;16.458;2023-05-07T14:09:22;4.70;;;2.50;;
69310;SDS011;56430;48.154;16.458;2023-05-07T14:11:50;4.95;;;2.78;;
69310;SDS011;56430;48.154;16.458;2023-05-07T14:14:17;9.23;;;2.70;;
69310;SDS011;56430;48.154;16.458;2023-05-07T14:16:44;4.00;;;2.30;;
69310;SDS011;56430;48.154;16.458;2023-05-07T14:19:11;4.13;;;1.92;;
69310;SDS011;56430;48.154;16.458;2023-05-07T14:21:38;4.03;;;2.50;;
69310;SDS011;56430;48.154;16.458;2023-05-07T14:24:06;4.07;;;2.10;;
69310;SDS011;56430;48.154;16.458;2023-05-07T14:26:34;3.97;;;2.05;;
69310;SDS011;56430;48.154;16.458;2023-05-07T14:29:01;4.75;;;2.22;;
69310;SDS011;56430;48.154;16.458;2023-05-07T14:31:28;3.38;;;2.00;;
69310;SDS011;56430;48.154;16.458;2023-05-07T14:33:55;4.57;;;2.13;;
69310;SDS011;56430;48.154;16.458;2023-05-07T14:36:23;4.30;;;1.58;;
69310;SDS011;56430;48.154;16.458;2023-05-07T14:38:51;3.15;;;1.70;;
69310;SDS011;56430;48.154;16.458;2023-05-07T14:41:18;6.10;;;1.90;;